sensor_id;sensor_type;location;lat;lon;timestamp;temperature;humidity
78054;DHT22;67726;45.636;11.752;2023-09-12T00:00:16;21.30;74.20
78054;DHT22;67726;45.636;11.752;2023-09-12T00:02:42;21.30;74.20
78054;DHT22;67726;45.636;11.752;2023-09-12T00:05:07;21.20;74.90
78054;DHT22;67726;45.636;11.752;2023-09-12T00:07:34;21.20;74.60
78054;DHT22;67726;45.636;11.752;2023-09-12T00:09:59;21.10;74.40
78054;DHT22;67726;45.636;11.752;2023-09-12T00:12:25;21.10;74.60
78054;DHT22;67726;45.636;11.752;2023-09-12T00:14:51;21.10;74.80
78054;DHT22;67726;45.636;11.752;2023-09-12T00:17:17;21.00;74.90
78054;DHT22;67726;45.636;11.752;2023-09-12T00:19:43;21.10;74.90
78054;DHT22;67726;45.636;11.752;2023-09-12T00:22:09;21.00;75.20
78054;DHT22;67726;45.636;11.752;2023-09-12T00:24:34;21.00;74.70
78054;DHT22;67726;45.636;11.752;2023-09-12T00:27:00;21.00;74.90
78054;DHT22;67726;45.636;11.752;2023-09-12T00:29:26;21.00;74.70
78054;DHT22;67726;45.636;11.752;2023-09-12T00:31:51;21.10;74.60
78054;DHT22;67726;45.636;11.752;2023-09-12T00:34:17;21.10;74.90
78054;DHT22;67726;45.636;11.752;2023-09-12T00:36:43;21.10;74.30
78054;DHT22;67726;45.636;11.752;2023-09-12T00:39:09;21.20;74.30
78054;DHT22;67726;45.636;11.752;2023-09-12T00:41:35;21.20;74.20
78054;DHT22;67726;45.636;11.752;2023-09-12T00:44:00;21.20;74.80
78054;DHT22;67726;45.636;11.752;2023-09-12T00:46:27;21.20;74.30
78054;DHT22;67726;45.636;11.752;2023-09-12T00:48:53;21.20;74.50
78054;DHT22;67726;45.636;11.752;2023-09-12T00:51:20;21.10;74.10
78054;DHT22;67726;45.636;11.752;2023-09-12T00:53:47;21.20;74.30
78054;DHT22;67726;45.636;11.752;2023-09-12T00:56:13;21.20;74.80
78054;DHT22;67726;45.636;11.752;2023-09-12T00:58:39;21.00;74.60
78054;DHT22;67726;45.636;11.752;2023-09-12T01:01:05;21.00;74.50
78054;DHT22;67726;45.636;11.752;2023-09-12T01:03:31;21.00;74.90
78054;DHT22;67726;45.636;11.752;2023-09-12T01:05:58;21.00;75.00
78054;DHT22;67726;45.636;11.752;2023-09-12T01:08:24;21.00;74.90
78054;DHT22;67726;45.636;11.752;2023-09-12T01:10:52;20.90;75.20
78054;DHT22;67726;45.636;11.752;2023-09-12T01:13:20;20.90;75.10
78054;DHT22;67726;45.636;11.752;2023-09-12T01:15:46;20.90;74.90
78054;DHT22;67726;45.636;11.752;2023-09-12T01:18:12;20.80;76.30
78054;DHT22;67726;45.636;11.752;2023-09-12T01:20:40;20.90;75.10
78054;DHT22;67726;45.636;11.752;2023-09-12T01:28:46;20.80;76.50
78054;DHT22;67726;45.636;11.752;2023-09-12T01:31:13;20.70;76.70
78054;DHT22;67726;45.636;11.752;2023-09-12T01:33:40;20.60;76.70
78054;DHT22;67726;45.636;11.752;2023-09-12T01:36:08;20.60;76.60
78054;DHT22;67726;45.636;11.752;2023-09-12T01:38:34;20.60;76.70
78054;DHT22;67726;45.636;11.752;2023-09-12T01:40:59;20.60;76.70
78054;DHT22;67726;45.636;11.752;2023-09-12T01:43:26;20.60;76.70
78054;DHT22;67726;45.636;11.752;2023-09-12T01:45:54;20.60;77.00
78054;DHT22;67726;45.636;11.752;2023-09-12T01:48:23;20.60;76.80
78054;DHT22;67726;45.636;11.752;2023-09-12T01:50:49;20.50;76.80
78054;DHT22;67726;45.636;11.752;2023-09-12T01:53:16;20.60;76.60
78054;DHT22;67726;45.636;11.752;2023-09-12T01:55:43;20.60;76.80
78054;DHT22;67726;45.636;11.752;2023-09-12T01:58:13;20.60;76.80
78054;DHT22;67726;45.636;11.752;2023-09-12T02:00:40;20.60;76.90
78054;DHT22;67726;45.636;11.752;2023-09-12T02:03:06;20.60;77.10
78054;DHT22;67726;45.636;11.752;2023-09-12T02:05:32;20.60;77.30
78054;DHT22;67726;45.636;11.752;2023-09-12T02:07:58;20.60;77.30
78054;DHT22;67726;45.636;11.752;2023-09-12T02:10:27;20.40;77.10
78054;DHT22;67726;45.636;11.752;2023-09-12T02:12:52;20.40;77.20
78054;DHT22;67726;45.636;11.752;2023-09-12T02:15:18;20.30;76.90
78054;DHT22;67726;45.636;11.752;2023-09-12T02:17:44;20.40;77.30
78054;DHT22;67726;45.636;11.752;2023-09-12T02:20:11;20.30;77.40
78054;DHT22;67726;45.636;11.752;2023-09-12T02:22:37;20.30;77.50
78054;DHT22;67726;45.636;11.752;2023-09-12T02:25:04;20.30;77.50
78054;DHT22;67726;45.636;11.752;2023-09-12T02:27:30;20.20;77.70
78054;DHT22;67726;45.636;11.752;2023-09-12T02:29:56;20.20;77.50
78054;DHT22;67726;45.636;11.752;2023-09-12T02:32:21;20.10;77.60
78054;DHT22;67726;45.636;11.752;2023-09-12T02:34:47;20.10;77.60
78054;DHT22;67726;45.636;11.752;2023-09-12T02:37:13;20.00;77.60
78054;DHT22;67726;45.636;11.752;2023-09-12T02:39:38;20.10;77.70
78054;DHT22;67726;45.636;11.752;2023-09-12T02:42:04;20.00;77.90
78054;DHT22;67726;45.636;11.752;2023-09-12T02:44:30;20.00;78.00
78054;DHT22;67726;45.636;11.752;2023-09-12T02:46:56;19.90;78.00
78054;DHT22;67726;45.636;11.752;2023-09-12T02:49:21;19.90;78.10
78054;DHT22;67726;45.636;11.752;2023-09-12T02:51:47;19.80;78.20
78054;DHT22;67726;45.636;11.752;2023-09-12T02:54:12;19.80;78.50
78054;DHT22;67726;45.636;11.752;2023-09-12T02:56:38;19.80;78.60
78054;DHT22;67726;45.636;11.752;2023-09-12T02:59:04;19.80;78.20
78054;DHT22;67726;45.636;11.752;2023-09-12T03:01:30;19.90;78.70
78054;DHT22;67726;45.636;11.752;2023-09-12T03:03:57;19.90;78.40
78054;DHT22;67726;45.636;11.752;2023-09-12T03:06:23;19.90;78.50
78054;DHT22;67726;45.636;11.752;2023-09-12T03:08:49;19.90;78.70
78054;DHT22;67726;45.636;11.752;2023-09-12T03:11:15;19.90;78.30
78054;DHT22;67726;45.636;11.752;2023-09-12T03:13:41;19.90;78.60
78054;DHT22;67726;45.636;11.752;2023-09-12T03:16:14;19.90;78.30
78054;DHT22;67726;45.636;11.752;2023-09-12T03:18:40;19.90;78.50
78054;DHT22;67726;45.636;11.752;2023-09-12T03:21:05;19.90;78.70
78054;DHT22;67726;45.636;11.752;2023-09-12T03:23:31;19.90;78.50
78054;DHT22;67726;45.636;11.752;2023-09-12T03:26:02;19.90;78.60
78054;DHT22;67726;45.636;11.752;2023-09-12T03:28:29;19.90;78.80
78054;DHT22;67726;45.636;11.752;2023-09-12T03:31:06;19.90;78.70
78054;DHT22;67726;45.636;11.752;2023-09-12T03:33:32;20.00;78.80
78054;DHT22;67726;45.636;11.752;2023-09-12T03:35:58;20.00;78.60
78054;DHT22;67726;45.636;11.752;2023-09-12T03:38:24;20.00;78.60
78054;DHT22;67726;45.636;11.752;2023-09-12T03:40:49;20.00;78.80
78054;DHT22;67726;45.636;11.752;2023-09-12T03:43:15;20.00;79.00
78054;DHT22;67726;45.636;11.752;2023-09-12T03:45:41;20.10;78.70
78054;DHT22;67726;45.636;11.752;2023-09-12T03:48:06;20.00;78.60
78054;DHT22;67726;45.636;11.752;2023-09-12T03:50:32;19.90;78.30
78054;DHT22;67726;45.636;11.752;2023-09-12T03:52:58;19.90;78.60
78054;DHT22;67726;45.636;11.752;2023-09-12T03:55:23;19.90;79.20
78054;DHT22;67726;45.636;11.752;2023-09-12T03:57:49;19.90;79.10
78054;DHT22;67726;45.636;11.752;2023-09-12T04:00:15;19.90;78.80
78054;DHT22;67726;45.636;11.752;2023-09-12T04:02:41;19.80;79.30
78054;DHT22;67726;45.636;11.752;2023-09-12T04:05:07;19.70;79.60
78054;DHT22;67726;45.636;11.752;2023-09-12T04:07:32;19.70;79.10
78054;DHT22;67726;45.636;11.752;2023-09-12T04:09:58;19.70;79.80
78054;DHT22;67726;45.636;11.752;2023-09-12T04:12:24;19.70;79.40
78054;DHT22;67726;45.636;11.752;2023-09-12T04:14:50;19.70;80.10
78054;DHT22;67726;45.636;11.752;2023-09-12T04:17:20;19.60;79.60
78054;DHT22;67726;45.636;11.752;2023-09-12T04:19:46;19.60;79.80
78054;DHT22;67726;45.636;11.752;2023-09-12T04:22:13;19.60;79.70
78054;DHT22;67726;45.636;11.752;2023-09-12T04:24:39;19.60;79.80
78054;DHT22;67726;45.636;11.752;2023-09-12T04:27:04;19.50;80.10
78054;DHT22;67726;45.636;11.752;2023-09-12T04:29:33;19.50;79.90
78054;DHT22;67726;45.636;11.752;2023-09-12T04:32:02;19.50;80.00
78054;DHT22;67726;45.636;11.752;2023-09-12T04:34:27;19.40;79.70
78054;DHT22;67726;45.636;11.752;2023-09-12T04:36:53;19.40;80.00
78054;DHT22;67726;45.636;11.752;2023-09-12T04:39:19;19.40;80.00
78054;DHT22;67726;45.636;11.752;2023-09-12T04:41:46;19.30;80.40
78054;DHT22;67726;45.636;11.752;2023-09-12T04:44:11;19.30;80.50
78054;DHT22;67726;45.636;11.752;2023-09-12T04:46:37;19.30;80.50
78054;DHT22;67726;45.636;11.752;2023-09-12T04:49:03;19.30;80.20
78054;DHT22;67726;45.636;11.752;2023-09-12T04:51:29;19.30;80.30
78054;DHT22;67726;45.636;11.752;2023-09-12T04:53:54;19.30;80.40
78054;DHT22;67726;45.636;11.752;2023-09-12T04:56:20;19.20;80.20
78054;DHT22;67726;45.636;11.752;2023-09-12T04:58:46;19.20;80.50
78054;DHT22;67726;45.636;11.752;2023-09-12T05:01:11;19.30;80.50
78054;DHT22;67726;45.636;11.752;2023-09-12T05:03:37;19.40;80.20
78054;DHT22;67726;45.636;11.752;2023-09-12T05:06:03;19.50;80.20
78054;DHT22;67726;45.636;11.752;2023-09-12T05:08:29;19.50;80.20
78054;DHT22;67726;45.636;11.752;2023-09-12T05:10:55;19.70;79.90
78054;DHT22;67726;45.636;11.752;2023-09-12T05:13:20;19.70;80.00
78054;DHT22;67726;45.636;11.752;2023-09-12T05:15:46;19.70;79.70
78054;DHT22;67726;45.636;11.752;2023-09-12T05:18:12;19.80;80.00
78054;DHT22;67726;45.636;11.752;2023-09-12T05:20:38;19.90;79.70
78054;DHT22;67726;45.636;11.752;2023-09-12T05:23:04;20.00;79.80
78054;DHT22;67726;45.636;11.752;2023-09-12T05:25:30;20.10;80.30
78054;DHT22;67726;45.636;11.752;2023-09-12T05:27:56;20.10;79.60
78054;DHT22;67726;45.636;11.752;2023-09-12T05:30:22;20.20;79.60
78054;DHT22;67726;45.636;11.752;2023-09-12T05:32:51;20.30;79.80
78054;DHT22;67726;45.636;11.752;2023-09-12T05:35:17;20.40;79.90
78054;DHT22;67726;45.636;11.752;2023-09-12T05:37:42;20.40;79.50
78054;DHT22;67726;45.636;11.752;2023-09-12T05:40:08;20.70;79.30
78054;DHT22;67726;45.636;11.752;2023-09-12T05:42:35;20.90;79.50
78054;DHT22;67726;45.636;11.752;2023-09-12T05:45:01;21.00;77.30
78054;DHT22;67726;45.636;11.752;2023-09-12T05:47:27;21.20;77.50
78054;DHT22;67726;45.636;11.752;2023-09-12T05:49:52;21.50;77.00
78054;DHT22;67726;45.636;11.752;2023-09-12T05:52:18;21.60;76.70
78054;DHT22;67726;45.636;11.752;2023-09-12T05:54:44;21.80;76.30
78054;DHT22;67726;45.636;11.752;2023-09-12T05:57:11;22.10;76.10
78054;DHT22;67726;45.636;11.752;2023-09-12T05:59:38;22.40;75.80
78054;DHT22;67726;45.636;11.752;2023-09-12T06:02:04;22.60;75.10
78054;DHT22;67726;45.636;11.752;2023-09-12T06:04:32;22.80;74.90
78054;DHT22;67726;45.636;11.752;2023-09-12T06:06:57;23.00;74.10
78054;DHT22;67726;45.636;11.752;2023-09-12T06:09:23;23.30;73.80
78054;DHT22;67726;45.636;11.752;2023-09-12T06:11:49;23.60;72.80
78054;DHT22;67726;45.636;11.752;2023-09-12T06:14:14;23.80;70.30
78054;DHT22;67726;45.636;11.752;2023-09-12T06:16:40;24.00;69.70
78054;DHT22;67726;45.636;11.752;2023-09-12T06:19:06;24.20;69.10
78054;DHT22;67726;45.636;11.752;2023-09-12T06:21:31;24.30;68.50
78054;DHT22;67726;45.636;11.752;2023-09-12T06:24:14;24.50;67.70
78054;DHT22;67726;45.636;11.752;2023-09-12T06:26:40;24.40;67.10
78054;DHT22;67726;45.636;11.752;2023-09-12T06:29:06;24.50;67.50
78054;DHT22;67726;45.636;11.752;2023-09-12T06:31:32;24.80;66.90
78054;DHT22;67726;45.636;11.752;2023-09-12T06:33:58;25.00;66.10
78054;DHT22;67726;45.636;11.752;2023-09-12T06:36:27;25.20;65.30
78054;DHT22;67726;45.636;11.752;2023-09-12T06:38:55;25.40;64.10
78054;DHT22;67726;45.636;11.752;2023-09-12T06:41:21;25.70;63.30
78054;DHT22;67726;45.636;11.752;2023-09-12T06:43:47;25.70;63.10
78054;DHT22;67726;45.636;11.752;2023-09-12T06:46:13;26.10;62.20
78054;DHT22;67726;45.636;11.752;2023-09-12T06:48:39;26.50;60.00
78054;DHT22;67726;45.636;11.752;2023-09-12T06:51:09;27.10;58.00
78054;DHT22;67726;45.636;11.752;2023-09-12T06:53:35;27.50;56.70
78054;DHT22;67726;45.636;11.752;2023-09-12T06:56:05;27.80;52.10
78054;DHT22;67726;45.636;11.752;2023-09-12T06:58:31;28.10;50.00
78054;DHT22;67726;45.636;11.752;2023-09-12T07:01:05;28.30;52.60
78054;DHT22;67726;45.636;11.752;2023-09-12T07:03:32;28.50;52.10
78054;DHT22;67726;45.636;11.752;2023-09-12T07:05:58;28.70;50.50
78054;DHT22;67726;45.636;11.752;2023-09-12T07:08:24;29.10;51.20
78054;DHT22;67726;45.636;11.752;2023-09-12T07:10:50;29.60;46.60
78054;DHT22;67726;45.636;11.752;2023-09-12T07:13:15;30.10;47.30
78054;DHT22;67726;45.636;11.752;2023-09-12T07:15:41;30.50;46.40
78054;DHT22;67726;45.636;11.752;2023-09-12T07:18:07;30.90;43.20
78054;DHT22;67726;45.636;11.752;2023-09-12T07:20:34;31.40;45.20
78054;DHT22;67726;45.636;11.752;2023-09-12T07:23:00;31.90;42.50
78054;DHT22;67726;45.636;11.752;2023-09-12T07:25:25;32.10;39.80
78054;DHT22;67726;45.636;11.752;2023-09-12T07:27:52;32.70;40.80
78054;DHT22;67726;45.636;11.752;2023-09-12T07:30:18;33.30;39.90
78054;DHT22;67726;45.636;11.752;2023-09-12T07:32:44;33.50;36.10
78054;DHT22;67726;45.636;11.752;2023-09-12T07:35:10;33.00;38.20
78054;DHT22;67726;45.636;11.752;2023-09-12T07:37:36;33.30;36.30
78054;DHT22;67726;45.636;11.752;2023-09-12T07:40:02;33.30;37.40
78054;DHT22;67726;45.636;11.752;2023-09-12T07:42:35;33.60;36.60
78054;DHT22;67726;45.636;11.752;2023-09-12T07:45:01;34.00;36.30
78054;DHT22;67726;45.636;11.752;2023-09-12T07:47:28;34.30;35.90
78054;DHT22;67726;45.636;11.752;2023-09-12T07:49:54;34.20;35.10
78054;DHT22;67726;45.636;11.752;2023-09-12T07:52:20;33.80;34.90
78054;DHT22;67726;45.636;11.752;2023-09-12T07:54:46;33.60;34.60
78054;DHT22;67726;45.636;11.752;2023-09-12T07:57:11;33.30;35.90
78054;DHT22;67726;45.636;11.752;2023-09-12T07:59:37;33.20;36.40
78054;DHT22;67726;45.636;11.752;2023-09-12T08:02:02;33.30;35.70
78054;DHT22;67726;45.636;11.752;2023-09-12T08:04:29;33.60;36.10
78054;DHT22;67726;45.636;11.752;2023-09-12T08:06:55;34.10;35.60
78054;DHT22;67726;45.636;11.752;2023-09-12T08:09:20;34.50;34.80
78054;DHT22;67726;45.636;11.752;2023-09-12T08:11:46;35.00;33.20
78054;DHT22;67726;45.636;11.752;2023-09-12T08:14:11;35.20;32.20
78054;DHT22;67726;45.636;11.752;2023-09-12T08:16:37;34.80;30.40
78054;DHT22;67726;45.636;11.752;2023-09-12T08:19:03;34.60;31.50
78054;DHT22;67726;45.636;11.752;2023-09-12T08:21:28;34.50;33.20
78054;DHT22;67726;45.636;11.752;2023-09-12T08:23:55;34.40;33.10
78054;DHT22;67726;45.636;11.752;2023-09-12T08:26:21;34.00;33.00
78054;DHT22;67726;45.636;11.752;2023-09-12T08:28:47;34.20;33.70
78054;DHT22;67726;45.636;11.752;2023-09-12T08:31:13;34.90;33.00
78054;DHT22;67726;45.636;11.752;2023-09-12T08:33:39;34.90;32.30
78054;DHT22;67726;45.636;11.752;2023-09-12T08:36:05;35.90;32.40
78054;DHT22;67726;45.636;11.752;2023-09-12T08:38:30;36.70;28.90
78054;DHT22;67726;45.636;11.752;2023-09-12T08:40:56;37.10;29.70
78054;DHT22;67726;45.636;11.752;2023-09-12T08:43:22;38.40;27.90
78054;DHT22;67726;45.636;11.752;2023-09-12T08:45:48;39.10;26.60
78054;DHT22;67726;45.636;11.752;2023-09-12T08:48:15;38.60;25.40
78054;DHT22;67726;45.636;11.752;2023-09-12T08:50:42;38.40;26.50
78054;DHT22;67726;45.636;11.752;2023-09-12T08:53:07;38.40;26.20
78054;DHT22;67726;45.636;11.752;2023-09-12T08:55:33;38.70;26.70
78054;DHT22;67726;45.636;11.752;2023-09-12T08:58:02;38.80;26.10
78054;DHT22;67726;45.636;11.752;2023-09-12T09:00:29;38.90;25.90
78054;DHT22;67726;45.636;11.752;2023-09-12T09:02:55;38.30;25.60
78054;DHT22;67726;45.636;11.752;2023-09-12T09:05:21;38.00;26.50
78054;DHT22;67726;45.636;11.752;2023-09-12T09:07:49;37.50;26.70
78054;DHT22;67726;45.636;11.752;2023-09-12T09:10:16;36.80;28.10
78054;DHT22;67726;45.636;11.752;2023-09-12T09:12:45;36.00;28.80
78054;DHT22;67726;45.636;11.752;2023-09-12T09:17:48;35.10;30.20
78054;DHT22;67726;45.636;11.752;2023-09-12T09:20:31;35.10;30.70
78054;DHT22;67726;45.636;11.752;2023-09-12T09:23:07;34.70;31.00
78054;DHT22;67726;45.636;11.752;2023-09-12T09:25:35;33.90;33.80
78054;DHT22;67726;45.636;11.752;2023-09-12T09:28:05;33.50;33.90
78054;DHT22;67726;45.636;11.752;2023-09-12T09:30:42;32.40;36.30
78054;DHT22;67726;45.636;11.752;2023-09-12T09:33:09;32.10;37.90
78054;DHT22;67726;45.636;11.752;2023-09-12T09:35:35;31.50;40.20
78054;DHT22;67726;45.636;11.752;2023-09-12T09:38:02;31.10;42.60
78054;DHT22;67726;45.636;11.752;2023-09-12T09:40:28;32.00;41.40
78054;DHT22;67726;45.636;11.752;2023-09-12T09:42:56;33.40;37.70
78054;DHT22;67726;45.636;11.752;2023-09-12T09:45:24;34.80;33.80
78054;DHT22;67726;45.636;11.752;2023-09-12T09:47:50;35.70;32.90
78054;DHT22;67726;45.636;11.752;2023-09-12T09:50:16;36.40;30.00
78054;DHT22;67726;45.636;11.752;2023-09-12T09:52:43;37.00;29.90
78054;DHT22;67726;45.636;11.752;2023-09-12T09:55:15;37.30;29.30
78054;DHT22;67726;45.636;11.752;2023-09-12T09:57:41;37.80;28.70
78054;DHT22;67726;45.636;11.752;2023-09-12T10:00:07;38.90;27.20
78054;DHT22;67726;45.636;11.752;2023-09-12T10:02:40;39.60;26.10
78054;DHT22;67726;45.636;11.752;2023-09-12T10:05:09;40.20;22.40
78054;DHT22;67726;45.636;11.752;2023-09-12T10:07:37;41.10;23.60
78054;DHT22;67726;45.636;11.752;2023-09-12T10:10:07;42.00;22.60
78054;DHT22;67726;45.636;11.752;2023-09-12T10:12:39;0.20;0.20
78054;DHT22;67726;45.636;11.752;2023-09-12T10:15:10;41.80;20.40
78054;DHT22;67726;45.636;11.752;2023-09-12T10:17:39;41.70;22.00
78054;DHT22;67726;45.636;11.752;2023-09-12T10:20:15;42.30;20.60
78054;DHT22;67726;45.636;11.752;2023-09-12T10:25:45;0.20;0.20
78054;DHT22;67726;45.636;11.752;2023-09-12T10:28:11;0.20;0.20
78054;DHT22;67726;45.636;11.752;2023-09-12T10:30:37;0.20;0.20
78054;DHT22;67726;45.636;11.752;2023-09-12T10:33:04;0.20;0.20
78054;DHT22;67726;45.636;11.752;2023-09-12T10:35:31;0.20;0.20
78054;DHT22;67726;45.636;11.752;2023-09-12T10:38:00;0.20;0.20
78054;DHT22;67726;45.636;11.752;2023-09-12T10:40:29;0.20;0.20
78054;DHT22;67726;45.636;11.752;2023-09-12T10:42:56;0.20;0.20
78054;DHT22;67726;45.636;11.752;2023-09-12T10:45:23;0.20;0.20
78054;DHT22;67726;45.636;11.752;2023-09-12T10:47:48;0.20;0.20
78054;DHT22;67726;45.636;11.752;2023-09-12T10:50:14;0.20;0.20
78054;DHT22;67726;45.636;11.752;2023-09-12T10:52:40;0.20;0.20
78054;DHT22;67726;45.636;11.752;2023-09-12T10:55:07;0.20;0.20
78054;DHT22;67726;45.636;11.752;2023-09-12T10:57:33;0.20;0.20
78054;DHT22;67726;45.636;11.752;2023-09-12T11:02:35;0.20;0.20
78054;DHT22;67726;45.636;11.752;2023-09-12T11:05:06;0.20;0.20
78054;DHT22;67726;45.636;11.752;2023-09-12T11:12:40;0.20;0.20
78054;DHT22;67726;45.636;11.752;2023-09-12T11:15:06;0.20;0.20
78054;DHT22;67726;45.636;11.752;2023-09-12T11:17:38;0.20;0.20
78054;DHT22;67726;45.636;11.752;2023-09-12T11:20:05;0.20;0.20
78054;DHT22;67726;45.636;11.752;2023-09-12T11:22:47;0.20;0.20
78054;DHT22;67726;45.636;11.752;2023-09-12T11:28:02;0.20;0.20
78054;DHT22;67726;45.636;11.752;2023-09-12T11:30:29;0.20;0.20
78054;DHT22;67726;45.636;11.752;2023-09-12T11:33:02;0.20;0.20
78054;DHT22;67726;45.636;11.752;2023-09-12T11:35:29;0.20;0.20
78054;DHT22;67726;45.636;11.752;2023-09-12T11:37:59;0.20;0.20
78054;DHT22;67726;45.636;11.752;2023-09-12T11:40:26;0.20;0.20
78054;DHT22;67726;45.636;11.752;2023-09-12T11:43:06;0.20;0.20
78054;DHT22;67726;45.636;11.752;2023-09-12T11:45:32;0.20;0.20
78054;DHT22;67726;45.636;11.752;2023-09-12T11:47:58;0.20;0.20
78054;DHT22;67726;45.636;11.752;2023-09-12T11:53:05;0.20;0.20
78054;DHT22;67726;45.636;11.752;2023-09-12T11:55:46;0.20;0.20
78054;DHT22;67726;45.636;11.752;2023-09-12T11:58:16;0.20;0.20
78054;DHT22;67726;45.636;11.752;2023-09-12T12:00:47;0.20;0.20
78054;DHT22;67726;45.636;11.752;2023-09-12T12:03:16;0.20;0.20
78054;DHT22;67726;45.636;11.752;2023-09-12T12:05:44;0.20;0.20
78054;DHT22;67726;45.636;11.752;2023-09-12T12:08:11;0.20;0.20
78054;DHT22;67726;45.636;11.752;2023-09-12T12:10:36;0.20;0.20
78054;DHT22;67726;45.636;11.752;2023-09-12T12:13:04;0.20;0.20
78054;DHT22;67726;45.636;11.752;2023-09-12T12:15:30;0.20;0.20
78054;DHT22;67726;45.636;11.752;2023-09-12T12:17:57;0.20;0.20
78054;DHT22;67726;45.636;11.752;2023-09-12T12:20:23;0.20;0.20
78054;DHT22;67726;45.636;11.752;2023-09-12T12:22:49;0.20;0.20
78054;DHT22;67726;45.636;11.752;2023-09-12T12:25:18;0.20;0.20
78054;DHT22;67726;45.636;11.752;2023-09-12T12:27:44;0.20;0.20
78054;DHT22;67726;45.636;11.752;2023-09-12T12:30:12;0.20;0.20
78054;DHT22;67726;45.636;11.752;2023-09-12T12:35:08;0.20;0.20
78054;DHT22;67726;45.636;11.752;2023-09-12T12:37:33;0.20;0.20
78054;DHT22;67726;45.636;11.752;2023-09-12T12:40:03;0.20;0.20
78054;DHT22;67726;45.636;11.752;2023-09-12T12:42:41;0.20;0.20
78054;DHT22;67726;45.636;11.752;2023-09-12T12:45:22;0.20;0.20
78054;DHT22;67726;45.636;11.752;2023-09-12T12:47:58;0.20;0.20
78054;DHT22;67726;45.636;11.752;2023-09-12T12:50:24;0.20;0.20
78054;DHT22;67726;45.636;11.752;2023-09-12T12:52:50;0.20;0.20
78054;DHT22;67726;45.636;11.752;2023-09-12T12:55:16;0.20;0.20
78054;DHT22;67726;45.636;11.752;2023-09-12T12:57:43;0.20;0.20
78054;DHT22;67726;45.636;11.752;2023-09-12T13:00:11;0.20;0.20
78054;DHT22;67726;45.636;11.752;2023-09-12T13:02:42;0.20;0.20
78054;DHT22;67726;45.636;11.752;2023-09-12T13:05:27;0.20;0.20
78054;DHT22;67726;45.636;11.752;2023-09-12T13:07:54;0.20;0.20
78054;DHT22;67726;45.636;11.752;2023-09-12T13:10:20;0.20;0.20
78054;DHT22;67726;45.636;11.752;2023-09-12T13:12:47;0.20;0.20
78054;DHT22;67726;45.636;11.752;2023-09-12T13:15:14;0.20;0.20
78054;DHT22;67726;45.636;11.752;2023-09-12T13:17:41;0.20;0.20
78054;DHT22;67726;45.636;11.752;2023-09-12T13:20:07;0.20;0.20
78054;DHT22;67726;45.636;11.752;2023-09-12T13:22:37;0.20;0.20
78054;DHT22;67726;45.636;11.752;2023-09-12T13:25:04;0.20;0.20
78054;DHT22;67726;45.636;11.752;2023-09-12T13:27:30;0.20;0.20
78054;DHT22;67726;45.636;11.752;2023-09-12T13:29:55;0.20;0.20
78054;DHT22;67726;45.636;11.752;2023-09-12T13:32:21;0.20;0.20
78054;DHT22;67726;45.636;11.752;2023-09-12T13:34:47;0.20;0.20
78054;DHT22;67726;45.636;11.752;2023-09-12T13:37:12;0.20;0.20
78054;DHT22;67726;45.636;11.752;2023-09-12T13:39:38;0.20;0.20
78054;DHT22;67726;45.636;11.752;2023-09-12T13:42:06;0.20;0.20
78054;DHT22;67726;45.636;11.752;2023-09-12T13:44:33;0.20;0.20
78054;DHT22;67726;45.636;11.752;2023-09-12T13:46:59;0.20;0.20
78054;DHT22;67726;45.636;11.752;2023-09-12T13:49:25;0.20;0.20
78054;DHT22;67726;45.636;11.752;2023-09-12T13:51:50;0.20;0.20
78054;DHT22;67726;45.636;11.752;2023-09-12T13:54:16;0.20;0.20
78054;DHT22;67726;45.636;11.752;2023-09-12T13:56:42;0.20;0.20
78054;DHT22;67726;45.636;11.752;2023-09-12T13:59:08;0.20;0.20
78054;DHT22;67726;45.636;11.752;2023-09-12T14:01:34;0.20;0.20
78054;DHT22;67726;45.636;11.752;2023-09-12T14:03:59;0.20;0.20
78054;DHT22;67726;45.636;11.752;2023-09-12T14:06:25;0.20;0.20
78054;DHT22;67726;45.636;11.752;2023-09-12T14:08:52;0.20;0.20
78054;DHT22;67726;45.636;11.752;2023-09-12T14:11:18;0.20;0.20
78054;DHT22;67726;45.636;11.752;2023-09-12T14:13:43;0.20;0.20
78054;DHT22;67726;45.636;11.752;2023-09-12T14:16:09;0.20;0.20
78054;DHT22;67726;45.636;11.752;2023-09-12T14:18:35;0.20;0.20
78054;DHT22;67726;45.636;11.752;2023-09-12T14:21:00;0.20;0.20
78054;DHT22;67726;45.636;11.752;2023-09-12T14:23:26;0.20;0.20
78054;DHT22;67726;45.636;11.752;2023-09-12T14:25:52;0.20;0.20
78054;DHT22;67726;45.636;11.752;2023-09-12T14:28:18;0.20;0.20
78054;DHT22;67726;45.636;11.752;2023-09-12T14:30:43;0.20;0.20
78054;DHT22;67726;45.636;11.752;2023-09-12T14:33:14;0.20;0.20
78054;DHT22;67726;45.636;11.752;2023-09-12T14:35:40;0.20;0.20
78054;DHT22;67726;45.636;11.752;2023-09-12T14:38:07;0.20;0.20
78054;DHT22;67726;45.636;11.752;2023-09-12T14:40:33;0.20;0.20
78054;DHT22;67726;45.636;11.752;2023-09-12T14:43:00;0.20;0.20
78054;DHT22;67726;45.636;11.752;2023-09-12T14:45:27;0.20;0.20
78054;DHT22;67726;45.636;11.752;2023-09-12T14:47:53;0.20;0.20
78054;DHT22;67726;45.636;11.752;2023-09-12T14:50:21;0.20;0.20
78054;DHT22;67726;45.636;11.752;2023-09-12T14:52:49;0.20;0.20
78054;DHT22;67726;45.636;11.752;2023-09-12T14:55:15;0.20;0.20
78054;DHT22;67726;45.636;11.752;2023-09-12T14:57:42;0.20;0.20
78054;DHT22;67726;45.636;11.752;2023-09-12T15:00:08;0.20;0.20
78054;DHT22;67726;45.636;11.752;2023-09-12T15:02:34;0.20;0.20
78054;DHT22;67726;45.636;11.752;2023-09-12T15:05:01;0.20;0.20
78054;DHT22;67726;45.636;11.752;2023-09-12T15:07:28;0.20;0.20
78054;DHT22;67726;45.636;11.752;2023-09-12T15:09:57;0.20;0.20
78054;DHT22;67726;45.636;11.752;2023-09-12T15:12:23;0.20;0.20
78054;DHT22;67726;45.636;11.752;2023-09-12T15:14:50;0.20;0.20
78054;DHT22;67726;45.636;11.752;2023-09-12T15:17:17;0.20;0.20
78054;DHT22;67726;45.636;11.752;2023-09-12T15:19:42;35.10;26.90
78054;DHT22;67726;45.636;11.752;2023-09-12T15:22:08;34.50;28.00
78054;DHT22;67726;45.636;11.752;2023-09-12T15:24:34;34.70;26.80
78054;DHT22;67726;45.636;11.752;2023-09-12T15:26:59;34.40;28.30
78054;DHT22;67726;45.636;11.752;2023-09-12T15:29:25;34.10;34.00
78054;DHT22;67726;45.636;11.752;2023-09-12T15:31:51;33.20;38.10
78054;DHT22;67726;45.636;11.752;2023-09-12T15:34:17;33.10;39.50
78054;DHT22;67726;45.636;11.752;2023-09-12T15:36:47;32.60;42.50
78054;DHT22;67726;45.636;11.752;2023-09-12T15:39:13;32.20;42.40
78054;DHT22;67726;45.636;11.752;2023-09-12T15:41:39;32.30;42.80
78054;DHT22;67726;45.636;11.752;2023-09-12T15:44:05;32.20;44.20
78054;DHT22;67726;45.636;11.752;2023-09-12T15:46:31;31.30;48.30
78054;DHT22;67726;45.636;11.752;2023-09-12T15:48:57;31.60;49.10